Terminal Aerodrome Forecast
Issued by NWS

Home | Current Version | Previous Version | Text Only | Print | Product List | Glossary On
Versions: 1 2 3 4 5 6 7 8 9 10 11 12 13 14 15 16 17 18 19
991
FTUS44 KBMX 270520
TAFTOI
TAF
KTOI 270520Z 2706/2806 28004KT P6SM BKN035 BKN070
     FM270900 32003KT P6SM OVC015
      TEMPO 2711/2714 2SM BR BKN004
     FM271500 34007KT P6SM SCT030
     FM280000 32005KT P6SM SKC=

USA.gov is the U.S. government's official web portal to all federal, state and local government web resources and services.